EDDL

Düsseldorf International Airport

Düsseldorf, Germany
METAR EDDL 201420Z VRB06KT CAVOK 29/10 Q1012 NOSIG
Observed Flight Rules
Jul-20 @ 14:20 UTC (22 minutes ago) Visual Flight Rules
Wind Visibility Clouds
Variable at 6 knots 10,000+ meters
  • Clear skies
Temperatures Readings
Current 29°C / 84°F
Dewpoint 10°C / 50°F
Humidity 31%
Altimeter 29.88" Hg
Pressure 1012 hPa
Elevation 44
METAR EDDL 201420Z VRB06KT CAVOK 29/10 Q1012 NOSIG
Observed Flight Rules
Jul-20 @ 14:20 UTC
(22 minutes ago)
VFR
Wind Visibility
Variable at 6 knots 10,000+ meters
Clouds
  • Clear skies
Temperature Dewpoint
29°C / 84°F 10°C / 50°F
Humidity Altimeter Pressure
31% 29.88" Hg 1012 hPa